Time;durP1;ratioP1;P1;durP2;ratioP2;P2;SDS_P1;SDS_P2;PMS_P1;PMS_P2;Temp;Humidity;BMP_temperature;BMP_pressure;BME280_temperature;BME280_humidity;BME280_pressure;Samples;Min_cycle;Max_cycle;Signal;HPM_P1;HPM_P2
2023/06/13 00:00:09;;;;;;;6.07;4.35;;;;;;;;;;5068868;28;20215;-71
2023/06/13 00:02:34;;;;;;;8.55;4.28;;;;;;;;;;5083439;28;20182;-71
2023/06/13 00:05:01;;;;;;;6.07;4.43;;;;;;;;;;5079571;28;20192;-72
2023/06/13 00:07:26;;;;;;;6.93;4.45;;;;;;;;;;5081672;28;20644;-71
2023/06/13 00:09:52;;;;;;;7.82;4.57;;;;;;;;;;5088860;28;20182;-72
2023/06/13 00:12:20;;;;;;;10.02;4.97;;;;;;;;;;5087737;28;20559;-71
2023/06/13 00:14:46;;;;;;;9.15;4.32;;;;;;;;;;5086920;28;20191;-71
2023/06/13 00:17:12;;;;;;;9.98;4.70;;;;;;;;;;5078004;28;20183;-71
2023/06/13 00:19:38;;;;;;;8.32;5.18;;;;;;;;;;5084537;28;22063;-71
2023/06/13 00:22:05;;;;;;;7.60;5.03;;;;;;;;;;5075703;28;20633;-71
2023/06/13 00:24:30;;;;;;;7.82;5.43;;;;;;;;;;5081406;28;20257;-71
2023/06/13 00:26:55;;;;;;;6.25;4.82;;;;;;;;;;5086195;28;20188;-71
2023/06/13 00:29:21;;;;;;;7.82;4.90;;;;;;;;;;5087883;28;20188;-71
2023/06/13 00:31:48;;;;;;;7.65;5.00;;;;;;;;;;5070350;28;20199;-71
2023/06/13 00:34:14;;;;;;;6.20;4.80;;;;;;;;;;5079293;28;20631;-71
2023/06/13 00:36:43;;;;;;;8.30;4.38;;;;;;;;;;5079588;28;20180;-72
2023/06/13 00:39:09;;;;;;;7.22;5.00;;;;;;;;;;5077221;28;20262;-71
2023/06/13 00:41:35;;;;;;;7.10;5.10;;;;;;;;;;5086519;28;20591;-71
2023/06/13 00:44:01;;;;;;;13.77;5.60;;;;;;;;;;5069242;28;20260;-71
2023/06/13 00:46:34;;;;;;;7.65;5.13;;;;;;;;;;5078981;28;20189;-71
2023/06/13 00:49:00;;;;;;;6.45;4.70;;;;;;;;;;5075365;28;20195;-71
2023/06/13 00:51:28;;;;;;;9.05;5.20;;;;;;;;;;5083160;28;20719;-71
2023/06/13 00:53:55;;;;;;;7.47;5.18;;;;;;;;;;5083146;28;20215;-71
2023/06/13 00:56:22;;;;;;;7.95;4.70;;;;;;;;;;5073233;28;20574;-71
2023/06/13 00:58:47;;;;;;;8.23;4.53;;;;;;;;;;5069895;28;20271;-71
2023/06/13 01:01:19;;;;;;;11.93;5.53;;;;;;;;;;5077759;28;21117;-71
2023/06/13 01:03:45;;;;;;;6.93;4.88;;;;;;;;;;5076144;28;20274;-71
2023/06/13 01:06:10;;;;;;;14.57;5.72;;;;;;;;;;5084579;28;20265;-72
2023/06/13 01:08:37;;;;;;;6.95;5.22;;;;;;;;;;5085913;28;20215;-71
2023/06/13 01:11:12;;;;;;;8.38;5.60;;;;;;;;;;5082621;28;20179;-71
2023/06/13 01:13:47;;;;;;;9.93;5.13;;;;;;;;;;5079286;28;20515;-72
2023/06/13 01:16:25;;;;;;;6.50;5.28;;;;;;;;;;5082345;28;20191;-71
2023/06/13 01:18:51;;;;;;;6.90;4.85;;;;;;;;;;5086318;28;20180;-71
2023/06/13 01:21:19;;;;;;;8.63;5.60;;;;;;;;;;5084842;28;20667;-71
2023/06/13 01:23:52;;;;;;;7.40;5.05;;;;;;;;;;5069888;28;20250;-71
2023/06/13 01:26:45;;;;;;;7.05;5.20;;;;;;;;;;5076370;28;20270;-71
2023/06/13 01:29:12;;;;;;;8.68;5.05;;;;;;;;;;5072476;28;20291;-71
2023/06/13 01:31:40;;;;;;;9.35;5.78;;;;;;;;;;5078509;28;20233;-71
2023/06/13 01:34:06;;;;;;;8.73;5.35;;;;;;;;;;5071883;28;20666;-72
2023/06/13 01:36:31;;;;;;;10.55;5.30;;;;;;;;;;5077836;28;20411;-71
2023/06/13 01:38:57;;;;;;;7.97;5.40;;;;;;;;;;5088018;28;20224;-71
2023/06/13 01:41:22;;;;;;;8.88;4.82;;;;;;;;;;5087025;28;20223;-72
2023/06/13 01:43:48;;;;;;;9.18;5.13;;;;;;;;;;5089539;28;20690;-71
2023/06/13 01:46:27;;;;;;;12.73;5.38;;;;;;;;;;5091189;28;20275;-71
2023/06/13 01:49:21;;;;;;;7.78;5.32;;;;;;;;;;5090266;28;20191;-72
2023/06/13 01:52:11;;;;;;;9.02;4.88;;;;;;;;;;5083587;28;20180;-71
2023/06/13 01:54:41;;;;;;;9.75;5.35;;;;;;;;;;5081627;28;20189;-71
2023/06/13 01:57:09;;;;;;;8.35;4.70;;;;;;;;;;5078099;28;20184;-72
2023/06/13 01:59:38;;;;;;;6.57;5.22;;;;;;;;;;5070954;28;20299;-71
2023/06/13 02:02:04;;;;;;;7.88;5.25;;;;;;;;;;5077890;28;20211;-71
2023/06/13 02:04:37;;;;;;;9.95;5.65;;;;;;;;;;5072251;28;20715;-72
2023/06/13 02:07:03;;;;;;;7.60;5.88;;;;;;;;;;5081519;28;20184;-72
2023/06/13 02:09:28;;;;;;;10.02;5.60;;;;;;;;;;5073563;28;20588;-72
2023/06/13 02:11:54;;;;;;;9.43;5.40;;;;;;;;;;5075581;28;20184;-71
2023/06/13 02:14:19;;;;;;;8.43;5.35;;;;;;;;;;5075158;28;20308;-72
2023/06/13 02:16:44;;;;;;;13.57;5.90;;;;;;;;;;5090345;28;20287;-71
2023/06/13 02:19:10;;;;;;;7.22;5.70;;;;;;;;;;5078995;28;20208;-72
2023/06/13 02:21:35;;;;;;;10.27;5.25;;;;;;;;;;5074398;28;20945;-72
2023/06/13 02:24:01;;;;;;;8.02;5.60;;;;;;;;;;5081945;28;20534;-71
2023/06/13 02:26:28;;;;;;;8.18;5.90;;;;;;;;;;5074521;28;20187;-71
2023/06/13 02:28:57;;;;;;;7.20;5.88;;;;;;;;;;5072098;28;20216;-71
2023/06/13 02:31:23;;;;;;;10.68;5.50;;;;;;;;;;5081571;28;20193;-71
2023/06/13 02:33:48;;;;;;;11.23;5.13;;;;;;;;;;5086751;28;20246;-72
2023/06/13 02:36:13;;;;;;;9.25;6.53;;;;;;;;;;5073406;28;20223;-71
2023/06/13 02:38:39;;;;;;;11.65;6.30;;;;;;;;;;5076599;28;20227;-71
2023/06/13 02:41:04;;;;;;;7.97;5.45;;;;;;;;;;5086869;28;20212;-71
2023/06/13 02:43:30;;;;;;;8.82;6.00;;;;;;;;;;5081203;28;20249;-71
2023/06/13 02:45:56;;;;;;;10.07;5.65;;;;;;;;;;5085775;28;20653;-71
2023/06/13 02:48:25;;;;;;;10.60;5.88;;;;;;;;;;5076688;28;20436;-71
2023/06/13 02:50:53;;;;;;;9.48;6.47;;;;;;;;;;5081539;28;20179;-70
2023/06/13 02:53:18;;;;;;;14.25;6.55;;;;;;;;;;5079664;28;20184;-71
2023/06/13 02:55:46;;;;;;;11.48;6.07;;;;;;;;;;5070804;28;20246;-71
2023/06/13 02:58:12;;;;;;;8.38;5.82;;;;;;;;;;5073512;28;20713;-71
2023/06/13 03:00:37;;;;;;;9.25;5.88;;;;;;;;;;5072089;28;20220;-71
2023/06/13 03:03:03;;;;;;;10.63;6.45;;;;;;;;;;5082288;28;20232;-71
2023/06/13 03:05:30;;;;;;;12.65;6.97;;;;;;;;;;5085906;28;20255;-71
2023/06/13 03:07:59;;;;;;;9.48;6.45;;;;;;;;;;5087913;28;20256;-71
2023/06/13 03:10:24;;;;;;;8.70;6.13;;;;;;;;;;5079836;28;20189;-72
2023/06/13 03:12:50;;;;;;;9.48;6.43;;;;;;;;;;5084130;28;20180;-71
2023/06/13 03:15:17;;;;;;;11.32;6.78;;;;;;;;;;5081746;28;20468;-72
2023/06/13 03:17:43;;;;;;;9.20;6.65;;;;;;;;;;5069774;28;20271;-71
2023/06/13 03:20:09;;;;;;;8.77;6.78;;;;;;;;;;5078229;28;20200;-71
2023/06/13 03:22:35;;;;;;;10.27;6.63;;;;;;;;;;5083818;28;20199;-71
2023/06/13 03:25:03;;;;;;;11.23;6.75;;;;;;;;;;5080415;28;20269;-72
2023/06/13 03:27:28;;;;;;;13.00;7.28;;;;;;;;;;5065715;28;20636;-71
2023/06/13 03:29:54;;;;;;;11.52;6.18;;;;;;;;;;5074587;28;20191;-72
2023/06/13 03:32:19;;;;;;;11.63;7.13;;;;;;;;;;5082839;28;20644;-72
2023/06/13 03:34:45;;;;;;;10.70;7.15;;;;;;;;;;5076638;28;20193;-72
2023/06/13 03:37:10;;;;;;;10.73;6.43;;;;;;;;;;5071014;28;20649;-72
2023/06/13 03:39:36;;;;;;;9.55;7.03;;;;;;;;;;5071858;28;20227;-72
2023/06/13 03:42:02;;;;;;;15.20;7.03;;;;;;;;;;5077104;28;20187;-72
2023/06/13 03:44:28;;;;;;;8.43;6.60;;;;;;;;;;5082667;28;20571;-72
2023/06/13 03:46:55;;;;;;;7.85;5.93;;;;;;;;;;5083670;28;20212;-72
2023/06/13 03:49:21;;;;;;;9.25;7.00;;;;;;;;;;5087465;28;20180;-71
2023/06/13 03:51:46;;;;;;;7.97;6.45;;;;;;;;;;5080882;28;20665;-71
2023/06/13 03:54:12;;;;;;;9.20;6.75;;;;;;;;;;5079814;28;20192;-70
2023/06/13 03:56:37;;;;;;;12.25;7.18;;;;;;;;;;5082787;28;20651;-71
2023/06/13 03:59:02;;;;;;;9.07;6.75;;;;;;;;;;5081334;28;20188;-71
2023/06/13 04:01:28;;;;;;;10.35;7.10;;;;;;;;;;5081971;28;20220;-71
2023/06/13 04:03:54;;;;;;;9.60;6.53;;;;;;;;;;5081959;28;20726;-71
2023/06/13 04:06:20;;;;;;;9.57;7.00;;;;;;;;;;5084468;28;20245;-71
2023/06/13 04:08:45;;;;;;;11.10;7.05;;;;;;;;;;5080042;28;20230;-71
2023/06/13 04:11:10;;;;;;;11.43;6.97;;;;;;;;;;5086112;28;20188;-71
2023/06/13 04:13:36;;;;;;;11.07;7.25;;;;;;;;;;5087042;28;20708;-71
2023/06/13 04:16:01;;;;;;;11.40;6.85;;;;;;;;;;5086556;28;20283;-71
2023/06/13 04:18:27;;;;;;;11.68;7.30;;;;;;;;;;5080704;28;20514;-71
2023/06/13 04:20:53;;;;;;;9.68;6.47;;;;;;;;;;5082589;28;20204;-71
2023/06/13 04:23:20;;;;;;;9.75;6.95;;;;;;;;;;5077988;28;20563;-71
2023/06/13 04:25:45;;;;;;;10.60;7.22;;;;;;;;;;5075156;28;20274;-70
2023/06/13 04:28:14;;;;;;;11.07;7.00;;;;;;;;;;5081880;28;20282;-71
2023/06/13 04:30:46;;;;;;;9.48;7.28;;;;;;;;;;5078461;28;20172;-70
2023/06/13 04:33:16;;;;;;;11.73;6.95;;;;;;;;;;5077760;28;20192;-70
2023/06/13 04:35:44;;;;;;;12.00;7.32;;;;;;;;;;5070159;28;20296;-71
2023/06/13 04:38:13;;;;;;;10.63;6.95;;;;;;;;;;5078310;28;20188;-71
2023/06/13 04:40:39;;;;;;;10.75;7.43;;;;;;;;;;5079259;28;20273;-71
2023/06/13 04:43:05;;;;;;;10.80;6.65;;;;;;;;;;5083430;28;20185;-71
2023/06/13 04:45:30;;;;;;;9.15;7.40;;;;;;;;;;5082219;28;20648;-71
2023/06/13 04:48:01;;;;;;;11.07;7.00;;;;;;;;;;5078526;28;20185;-71
2023/06/13 04:50:28;;;;;;;9.82;7.53;;;;;;;;;;5078632;28;20623;-71
2023/06/13 04:52:54;;;;;;;9.23;7.18;;;;;;;;;;5074169;28;20177;-70
2023/06/13 04:55:23;;;;;;;9.75;7.10;;;;;;;;;;5086838;28;20551;-71
2023/06/13 04:57:48;;;;;;;8.57;6.63;;;;;;;;;;5084901;28;20212;-71
2023/06/13 05:00:15;;;;;;;10.95;7.45;;;;;;;;;;5086813;28;20951;-71
2023/06/13 05:02:41;;;;;;;15.27;7.22;;;;;;;;;;5083233;28;20526;-71
2023/06/13 05:05:07;;;;;;;12.18;7.43;;;;;;;;;;5085453;28;20569;-71
2023/06/13 05:07:34;;;;;;;9.07;6.38;;;;;;;;;;5084125;28;20188;-71
2023/06/13 05:10:03;;;;;;;12.65;7.10;;;;;;;;;;5077730;28;20190;-71
2023/06/13 05:12:28;;;;;;;8.88;7.18;;;;;;;;;;5075609;28;20700;-71
2023/06/13 05:14:54;;;;;;;9.88;7.10;;;;;;;;;;5074549;28;20196;-71
2023/06/13 05:17:20;;;;;;;9.82;7.63;;;;;;;;;;5085542;28;20569;-71
2023/06/13 05:19:46;;;;;;;8.55;6.60;;;;;;;;;;5074763;28;20203;-72
2023/06/13 05:22:12;;;;;;;12.30;6.45;;;;;;;;;;5084991;28;20181;-72
2023/06/13 05:24:37;;;;;;;9.18;6.85;;;;;;;;;;5085118;28;20184;-71
2023/06/13 05:27:03;;;;;;;9.30;6.90;;;;;;;;;;5070884;28;20205;-72
2023/06/13 05:29:30;;;;;;;8.95;6.53;;;;;;;;;;5084395;28;20185;-70
2023/06/13 05:31:57;;;;;;;9.10;7.38;;;;;;;;;;5083992;28;20639;-71
2023/06/13 05:34:23;;;;;;;10.02;6.75;;;;;;;;;;5079523;28;20257;-71
2023/06/13 05:36:48;;;;;;;11.25;6.28;;;;;;;;;;5069063;28;20576;-72
2023/06/13 05:39:14;;;;;;;14.20;6.95;;;;;;;;;;5075950;28;20229;-71
2023/06/13 05:41:42;;;;;;;11.73;7.30;;;;;;;;;;5077580;28;20189;-70
2023/06/13 05:44:08;;;;;;;11.95;7.30;;;;;;;;;;5074308;28;20590;-70
2023/06/13 05:46:33;;;;;;;8.95;6.20;;;;;;;;;;5079120;28;20196;-71
2023/06/13 05:48:59;;;;;;;14.07;6.80;;;;;;;;;;5079805;28;20282;-71
2023/06/13 05:51:25;;;;;;;11.52;6.35;;;;;;;;;;5078549;28;20184;-73
2023/06/13 05:53:50;;;;;;;11.75;6.78;;;;;;;;;;5075685;28;20203;-70
2023/06/13 05:56:16;;;;;;;9.32;6.88;;;;;;;;;;5074584;28;20195;-70
2023/06/13 05:58:42;;;;;;;15.23;6.50;;;;;;;;;;5076994;28;20203;-70
2023/06/13 06:01:10;;;;;;;8.70;6.70;;;;;;;;;;5073974;28;20317;-72
2023/06/13 06:03:35;;;;;;;10.00;7.20;;;;;;;;;;5082486;28;20568;-70
2023/06/13 06:06:01;;;;;;;11.13;6.68;;;;;;;;;;5086148;28;20184;-70
2023/06/13 06:08:27;;;;;;;9.55;6.30;;;;;;;;;;5075487;28;20192;-70
2023/06/13 06:10:53;;;;;;;8.73;6.65;;;;;;;;;;5086046;28;20192;-70
2023/06/13 06:13:18;;;;;;;7.93;6.30;;;;;;;;;;5078898;28;20223;-70
2023/06/13 06:15:43;;;;;;;11.90;6.97;;;;;;;;;;5079382;28;20630;-70
2023/06/13 06:18:09;;;;;;;9.50;6.53;;;;;;;;;;5085734;28;20192;-70
2023/06/13 06:20:34;;;;;;;10.45;6.25;;;;;;;;;;5081089;28;20196;-71
2023/06/13 06:23:00;;;;;;;8.55;6.38;;;;;;;;;;5075309;28;20628;-71
2023/06/13 06:25:25;;;;;;;9.30;6.57;;;;;;;;;;5084992;28;20637;-71
2023/06/13 06:27:50;;;;;;;9.98;6.70;;;;;;;;;;5074808;28;20206;-70
2023/06/13 06:30:16;;;;;;;9.43;6.20;;;;;;;;;;5083473;28;20234;-70
2023/06/13 06:32:42;;;;;;;8.30;6.60;;;;;;;;;;5083433;28;20208;-71
2023/06/13 06:35:08;;;;;;;13.88;6.75;;;;;;;;;;5087847;28;20241;-71
2023/06/13 06:37:33;;;;;;;11.30;6.45;;;;;;;;;;5080902;28;21021;-71
2023/06/13 06:39:59;;;;;;;10.77;6.13;;;;;;;;;;5084729;28;20224;-71
2023/06/13 06:42:25;;;;;;;8.02;6.45;;;;;;;;;;5078139;28;20184;-71
2023/06/13 06:44:51;;;;;;;13.63;5.93;;;;;;;;;;5075264;28;20249;-71
2023/06/13 06:47:16;;;;;;;8.57;6.30;;;;;;;;;;5069485;28;20234;-71
2023/06/13 06:49:41;;;;;;;9.50;5.95;;;;;;;;;;5086152;28;20266;-72
2023/06/13 06:52:07;;;;;;;8.95;6.35;;;;;;;;;;5086404;28;20275;-70
2023/06/13 06:54:33;;;;;;;13.05;6.03;;;;;;;;;;5079202;28;20191;-71
2023/06/13 06:56:58;;;;;;;8.15;6.10;;;;;;;;;;5069092;28;20278;-71
2023/06/13 06:59:24;;;;;;;12.02;7.25;;;;;;;;;;5079217;28;20192;-72
2023/06/13 07:01:50;;;;;;;8.57;5.70;;;;;;;;;;5087318;28;20249;-71
2023/06/13 07:04:16;;;;;;;8.48;5.95;;;;;;;;;;5086873;28;20713;-72
2023/06/13 07:06:41;;;;;;;9.77;6.43;;;;;;;;;;5077367;28;20184;-72
2023/06/13 07:09:07;;;;;;;13.38;6.47;;;;;;;;;;5077089;28;20483;-71
2023/06/13 07:11:32;;;;;;;7.38;6.13;;;;;;;;;;5090085;28;20699;-72
2023/06/13 07:13:58;;;;;;;9.30;6.25;;;;;;;;;;5085729;28;20287;-72
2023/06/13 07:16:24;;;;;;;8.27;6.03;;;;;;;;;;5075797;28;20188;-71
2023/06/13 07:18:50;;;;;;;9.15;6.45;;;;;;;;;;5070363;28;20199;-71
2023/06/13 07:21:15;;;;;;;8.23;5.93;;;;;;;;;;5079184;28;20208;-71
2023/06/13 07:23:41;;;;;;;12.38;6.15;;;;;;;;;;5070651;28;20192;-72
2023/06/13 07:26:06;;;;;;;7.97;5.25;;;;;;;;;;5088868;28;20214;-72
2023/06/13 07:28:32;;;;;;;9.43;6.50;;;;;;;;;;5076740;28;20575;-72
2023/06/13 07:30:58;;;;;;;7.43;5.47;;;;;;;;;;5083228;28;20184;-72
2023/06/13 07:33:24;;;;;;;8.48;5.20;;;;;;;;;;5076336;28;20184;-72
2023/06/13 07:35:52;;;;;;;7.32;5.78;;;;;;;;;;5076556;28;20185;-71
2023/06/13 07:38:19;;;;;;;7.75;5.75;;;;;;;;;;5074402;28;20234;-71
2023/06/13 07:40:45;;;;;;;12.13;5.93;;;;;;;;;;5086663;28;20727;-72
2023/06/13 07:43:11;;;;;;;11.60;6.57;;;;;;;;;;5074903;28;20198;-72
2023/06/13 07:45:36;;;;;;;8.15;5.90;;;;;;;;;;5070896;28;20184;-71
2023/06/13 07:48:01;;;;;;;14.27;5.60;;;;;;;;;;5083711;28;20260;-71
2023/06/13 07:50:28;;;;;;;10.95;6.15;;;;;;;;;;5079397;28;20184;-72
2023/06/13 07:52:53;;;;;;;6.35;5.72;;;;;;;;;;5076123;28;20591;-71
2023/06/13 07:55:19;;;;;;;10.50;5.40;;;;;;;;;;5080307;28;20270;-71
2023/06/13 07:57:45;;;;;;;7.60;5.53;;;;;;;;;;5080250;28;20211;-72
2023/06/13 08:00:17;;;;;;;7.30;5.20;;;;;;;;;;5076810;28;20235;-71
2023/06/13 08:02:44;;;;;;;14.43;5.95;;;;;;;;;;5075873;28;20203;-71
2023/06/13 08:05:11;;;;;;;8.00;5.60;;;;;;;;;;5074378;28;20192;-71
2023/06/13 08:07:36;;;;;;;9.85;6.20;;;;;;;;;;5067984;28;20201;-71
2023/06/13 08:10:02;;;;;;;10.95;6.05;;;;;;;;;;5071200;28;20203;-71
2023/06/13 08:12:27;;;;;;;7.60;5.30;;;;;;;;;;5089127;28;20195;-71
2023/06/13 08:14:53;;;;;;;9.82;5.47;;;;;;;;;;5084797;28;20263;-71
2023/06/13 08:17:18;;;;;;;11.70;5.70;;;;;;;;;;5085441;28;20559;-71
2023/06/13 08:19:48;;;;;;;7.13;4.93;;;;;;;;;;5082971;28;20207;-71
2023/06/13 08:22:14;;;;;;;7.40;5.72;;;;;;;;;;5084566;28;20184;-70
2023/06/13 08:24:40;;;;;;;8.73;5.75;;;;;;;;;;5072339;28;20212;-70
2023/06/13 08:27:07;;;;;;;8.82;5.47;;;;;;;;;;5082765;28;20682;-71
2023/06/13 08:29:33;;;;;;;9.63;5.47;;;;;;;;;;5071206;28;20188;-71
2023/06/13 08:31:59;;;;;;;8.30;5.85;;;;;;;;;;5071905;28;20173;-70
2023/06/13 08:34:25;;;;;;;6.57;5.68;;;;;;;;;;5073767;28;20180;-71
2023/06/13 08:36:51;;;;;;;7.43;5.32;;;;;;;;;;5074138;28;20616;-70
2023/06/13 08:39:16;;;;;;;8.57;5.85;;;;;;;;;;5077901;28;20228;-71
2023/06/13 08:41:43;;;;;;;9.38;5.30;;;;;;;;;;5084788;28;20211;-71
2023/06/13 08:44:09;;;;;;;9.98;5.60;;;;;;;;;;5069521;28;20249;-71
2023/06/13 08:46:36;;;;;;;8.45;5.05;;;;;;;;;;5083223;28;20183;-71
2023/06/13 08:49:02;;;;;;;7.57;5.28;;;;;;;;;;5083702;28;20196;-71
2023/06/13 08:51:30;;;;;;;11.13;5.28;;;;;;;;;;5069390;28;20651;-71
2023/06/13 08:54:02;;;;;;;10.73;5.78;;;;;;;;;;5064790;28;20185;-70
2023/06/13 08:56:30;;;;;;;9.18;5.47;;;;;;;;;;5075968;28;20199;-71
2023/06/13 08:59:07;;;;;;;8.00;4.82;;;;;;;;;;5066965;28;20593;-71
2023/06/13 09:01:34;;;;;;;8.40;5.38;;;;;;;;;;5085668;28;20235;-70
2023/06/13 09:04:00;;;;;;;6.75;5.50;;;;;;;;;;5086879;28;20184;-71
2023/06/13 09:06:27;;;;;;;6.68;5.05;;;;;;;;;;5074235;28;20188;-71
2023/06/13 09:08:55;;;;;;;6.50;5.13;;;;;;;;;;5071451;28;20176;-72
2023/06/13 09:11:20;;;;;;;12.85;5.60;;;;;;;;;;5073249;28;20181;-70
2023/06/13 09:13:47;;;;;;;9.57;5.32;;;;;;;;;;5085043;28;20586;-71
2023/06/13 09:16:13;;;;;;;12.18;5.43;;;;;;;;;;5087891;28;20286;-71
2023/06/13 09:18:42;;;;;;;6.32;4.88;;;;;;;;;;5072414;28;20260;-71
2023/06/13 09:21:11;;;;;;;5.43;4.85;;;;;;;;;;5073542;28;20695;-70
2023/06/13 09:23:38;;;;;;;7.75;5.53;;;;;;;;;;5077885;28;20180;-71
2023/06/13 09:26:05;;;;;;;5.90;5.05;;;;;;;;;;5074457;28;20177;-70
2023/06/13 09:28:36;;;;;;;8.25;5.05;;;;;;;;;;5067840;28;20550;-71
2023/06/13 09:31:01;;;;;;;8.38;5.10;;;;;;;;;;5086774;28;20278;-72
2023/06/13 09:33:26;;;;;;;15.48;5.40;;;;;;;;;;5076804;28;20266;-72
2023/06/13 09:35:52;;;;;;;8.40;5.35;;;;;;;;;;5081425;28;20654;-71
2023/06/13 09:38:26;;;;;;;12.10;5.22;;;;;;;;;;5075410;28;20269;-71
2023/06/13 09:40:54;;;;;;;9.52;5.40;;;;;;;;;;5083592;28;20548;-72
2023/06/13 09:43:21;;;;;;;10.00;5.13;;;;;;;;;;5084937;28;20306;-71
2023/06/13 09:45:51;;;;;;;7.25;5.30;;;;;;;;;;5090883;28;20271;-71
2023/06/13 09:48:20;;;;;;;12.60;4.70;;;;;;;;;;5083712;28;20301;-72
2023/06/13 09:50:46;;;;;;;8.45;5.00;;;;;;;;;;5078362;28;20523;-71
2023/06/13 09:53:11;;;;;;;6.80;5.00;;;;;;;;;;5083756;28;20310;-71
2023/06/13 09:55:36;;;;;;;7.90;4.75;;;;;;;;;;5088749;28;20282;-71
2023/06/13 09:58:03;;;;;;;8.80;4.85;;;;;;;;;;5085046;28;20639;-70
2023/06/13 10:00:29;;;;;;;7.57;4.95;;;;;;;;;;5082598;28;20715;-71
2023/06/13 10:02:55;;;;;;;5.18;4.68;;;;;;;;;;5083257;28;20210;-73
2023/06/13 10:05:21;;;;;;;7.95;5.05;;;;;;;;;;5078580;28;20569;-73
2023/06/13 10:07:47;;;;;;;7.55;4.80;;;;;;;;;;5073684;28;20267;-71
2023/06/13 10:10:12;;;;;;;7.75;4.97;;;;;;;;;;5078962;28;20592;-72
2023/06/13 10:12:44;;;;;;;8.50;5.13;;;;;;;;;;5070169;28;20183;-70
2023/06/13 10:15:12;;;;;;;7.68;4.70;;;;;;;;;;5083278;28;20219;-70
2023/06/13 10:17:42;;;;;;;5.63;4.80;;;;;;;;;;5070840;28;20184;-71
2023/06/13 10:20:10;;;;;;;6.78;5.10;;;;;;;;;;5072487;28;20767;-71
2023/06/13 10:22:39;;;;;;;5.75;5.00;;;;;;;;;;5080492;28;20234;-71
2023/06/13 10:25:07;;;;;;;6.30;4.82;;;;;;;;;;5075898;28;20235;-71
2023/06/13 10:27:36;;;;;;;5.47;4.93;;;;;;;;;;5070829;28;20235;-70
2023/06/13 10:30:13;;;;;;;8.95;5.03;;;;;;;;;;5076015;28;20276;-70
2023/06/13 10:32:41;;;;;;;5.82;5.18;;;;;;;;;;5084760;28;20632;-70
2023/06/13 10:35:24;;;;;;;6.85;4.70;;;;;;;;;;5078463;28;20187;-69
2023/06/13 10:38:08;;;;;;;5.43;4.55;;;;;;;;;;5079315;28;20262;-71
2023/06/13 10:40:54;;;;;;;6.10;5.10;;;;;;;;;;5075122;28;20245;-71
2023/06/13 10:43:35;;;;;;;8.63;4.60;;;;;;;;;;5074039;28;20240;-69
2023/06/13 10:46:05;;;;;;;6.53;4.82;;;;;;;;;;5087259;28;20636;-69
2023/06/13 10:48:38;;;;;;;7.22;5.00;;;;;;;;;;5080610;28;20189;-70
2023/06/13 10:51:08;;;;;;;6.68;4.50;;;;;;;;;;5083985;28;20202;-70
2023/06/13 10:53:34;;;;;;;8.77;4.47;;;;;;;;;;5085464;28;20181;-71
2023/06/13 10:56:04;;;;;;;7.50;4.57;;;;;;;;;;5089428;28;20710;-71
2023/06/13 10:58:30;;;;;;;5.55;4.22;;;;;;;;;;5089286;28;20539;-70
2023/06/13 11:00:56;;;;;;;5.63;4.82;;;;;;;;;;5084774;28;20212;-71
2023/06/13 11:03:30;;;;;;;6.88;4.57;;;;;;;;;;5073012;28;20212;-72
2023/06/13 11:05:55;;;;;;;9.05;4.60;;;;;;;;;;5075287;28;20213;-70
2023/06/13 11:08:23;;;;;;;5.65;4.80;;;;;;;;;;5085696;28;20250;-71
2023/06/13 11:10:50;;;;;;;6.07;4.82;;;;;;;;;;5089248;28;20180;-71
2023/06/13 11:13:19;;;;;;;6.85;4.90;;;;;;;;;;5090144;28;20535;-71
2023/06/13 11:15:44;;;;;;;6.50;4.75;;;;;;;;;;5074128;28;20233;-71
2023/06/13 11:18:09;;;;;;;5.28;4.72;;;;;;;;;;5082226;28;20180;-71
2023/06/13 11:20:58;;;;;;;7.45;4.63;;;;;;;;;;5079759;28;20213;-71
2023/06/13 11:23:32;;;;;;;8.45;4.80;;;;;;;;;;5071397;28;20605;-71
2023/06/13 11:25:58;;;;;;;7.72;4.40;;;;;;;;;;5080967;28;20553;-70
2023/06/13 11:28:24;;;;;;;4.65;4.18;;;;;;;;;;5089243;28;20191;-71
2023/06/13 11:30:52;;;;;;;5.40;4.63;;;;;;;;;;5075485;28;20176;-73
2023/06/13 11:33:18;;;;;;;5.68;4.63;;;;;;;;;;5089190;28;20184;-71
2023/06/13 11:35:49;;;;;;;6.68;4.85;;;;;;;;;;5080536;28;20541;-73
2023/06/13 11:38:20;;;;;;;5.47;4.28;;;;;;;;;;5068924;28;20192;-70
2023/06/13 11:40:51;;;;;;;8.68;4.60;;;;;;;;;;5078958;28;20243;-72
2023/06/13 11:43:17;;;;;;;7.30;4.32;;;;;;;;;;5080900;28;20192;-71
2023/06/13 11:45:43;;;;;;;5.18;4.43;;;;;;;;;;5082583;28;20450;-70
2023/06/13 11:48:11;;;;;;;7.90;4.80;;;;;;;;;;5076112;28;20625;-71
2023/06/13 11:50:37;;;;;;;5.43;4.43;;;;;;;;;;5083156;28;20184;-70
2023/06/13 11:53:09;;;;;;;6.65;4.60;;;;;;;;;;5081176;28;20229;-70
2023/06/13 11:55:35;;;;;;;7.05;5.07;;;;;;;;;;5083226;28;20267;-70
2023/06/13 11:58:01;;;;;;;5.68;4.63;;;;;;;;;;5088953;28;20180;-70
2023/06/13 12:00:27;;;;;;;7.35;4.75;;;;;;;;;;5074983;28;20302;-69
2023/06/13 12:02:55;;;;;;;7.65;4.68;;;;;;;;;;5068666;28;20254;-70
2023/06/13 12:05:22;;;;;;;7.28;4.28;;;;;;;;;;5070294;28;20643;-72
2023/06/13 12:07:48;;;;;;;7.45;4.25;;;;;;;;;;5079443;28;20189;-70
2023/06/13 12:10:14;;;;;;;6.03;4.65;;;;;;;;;;5070208;28;20196;-70
2023/06/13 12:12:40;;;;;;;5.78;4.70;;;;;;;;;;5077321;28;20668;-70
2023/06/13 12:15:07;;;;;;;5.45;4.93;;;;;;;;;;5069035;28;20185;-69
2023/06/13 12:17:33;;;;;;;7.63;4.40;;;;;;;;;;5084157;28;20815;-71
2023/06/13 12:20:09;;;;;;;8.02;4.90;;;;;;;;;;5076373;28;20208;-70
2023/06/13 12:22:34;;;;;;;5.05;4.32;;;;;;;;;;5081575;28;20188;-71
2023/06/13 12:25:00;;;;;;;8.35;4.75;;;;;;;;;;5079606;28;20525;-72
2023/06/13 12:27:26;;;;;;;4.97;4.40;;;;;;;;;;5082312;28;20329;-70
2023/06/13 12:29:52;;;;;;;8.35;5.00;;;;;;;;;;5079344;28;20233;-73
2023/06/13 12:32:18;;;;;;;5.88;4.53;;;;;;;;;;5079599;28;20778;-71
2023/06/13 12:34:45;;;;;;;5.95;4.75;;;;;;;;;;5073931;28;20274;-71
2023/06/13 12:37:12;;;;;;;6.80;4.72;;;;;;;;;;5085813;28;20192;-70
2023/06/13 12:39:58;;;;;;;7.60;4.65;;;;;;;;;;5073236;28;20591;-70
2023/06/13 12:42:23;;;;;;;5.38;4.30;;;;;;;;;;5082259;28;20215;-70
2023/06/13 12:44:49;;;;;;;4.90;4.43;;;;;;;;;;5085033;28;20191;-73
2023/06/13 12:47:14;;;;;;;7.55;4.53;;;;;;;;;;5082057;28;20181;-70
2023/06/13 12:49:40;;;;;;;7.80;4.60;;;;;;;;;;5068943;28;20253;-71
2023/06/13 12:52:07;;;;;;;9.23;4.65;;;;;;;;;;5082470;28;20188;-70
2023/06/13 12:54:37;;;;;;;6.65;4.38;;;;;;;;;;5077977;28;20199;-70
2023/06/13 12:57:08;;;;;;;6.75;4.75;;;;;;;;;;5069901;28;20184;-71
2023/06/13 12:59:39;;;;;;;7.85;4.85;;;;;;;;;;5072487;28;20261;-71
2023/06/13 13:02:10;;;;;;;6.30;4.65;;;;;;;;;;5082659;28;20210;-71
2023/06/13 13:04:37;;;;;;;5.95;5.07;;;;;;;;;;5086998;28;20546;-71
2023/06/13 13:07:04;;;;;;;5.90;4.43;;;;;;;;;;5085127;28;20188;-71
2023/06/13 13:09:31;;;;;;;8.60;4.40;;;;;;;;;;5083305;28;20262;-70
2023/06/13 13:11:57;;;;;;;7.15;4.53;;;;;;;;;;5079761;28;20181;-71
2023/06/13 13:14:24;;;;;;;7.22;4.63;;;;;;;;;;5089253;28;20179;-74
2023/06/13 13:16:50;;;;;;;5.20;4.70;;;;;;;;;;5082815;28;20261;-71
2023/06/13 13:19:16;;;;;;;12.60;4.78;;;;;;;;;;5085491;28;20180;-71
2023/06/13 13:21:42;;;;;;;6.13;4.40;;;;;;;;;;5078388;28;20695;-71
2023/06/13 13:24:07;;;;;;;6.05;4.85;;;;;;;;;;5076283;28;20525;-71
2023/06/13 13:26:33;;;;;;;4.88;4.35;;;;;;;;;;5087275;28;20678;-70
2023/06/13 13:28:58;;;;;;;6.03;4.90;;;;;;;;;;5087048;28;20211;-73
2023/06/13 13:31:23;;;;;;;8.02;4.70;;;;;;;;;;5079324;28;20349;-73
2023/06/13 13:33:49;;;;;;;7.10;4.65;;;;;;;;;;5072852;28;20243;-71
2023/06/13 13:36:15;;;;;;;5.55;5.03;;;;;;;;;;5077217;28;20188;-71
2023/06/13 13:38:40;;;;;;;5.88;4.65;;;;;;;;;;5077611;28;20221;-71
2023/06/13 13:41:05;;;;;;;6.82;4.28;;;;;;;;;;5076818;28;20210;-70
2023/06/13 13:43:33;;;;;;;7.15;4.50;;;;;;;;;;5090623;28;20263;-70
2023/06/13 13:45:58;;;;;;;6.28;4.60;;;;;;;;;;5084721;28;20525;-69
2023/06/13 13:48:24;;;;;;;6.80;4.68;;;;;;;;;;5085175;28;20279;-70
2023/06/13 13:50:49;;;;;;;5.53;4.65;;;;;;;;;;5085174;28;20193;-70
2023/06/13 13:53:15;;;;;;;5.28;4.53;;;;;;;;;;5075515;28;20195;-71
2023/06/13 13:55:41;;;;;;;5.28;4.80;;;;;;;;;;5082862;28;20188;-71
2023/06/13 13:58:09;;;;;;;7.95;4.65;;;;;;;;;;5080655;28;20188;-69
2023/06/13 14:00:35;;;;;;;8.45;4.90;;;;;;;;;;5077301;28;20215;-69
2023/06/13 14:03:00;;;;;;;9.57;4.63;;;;;;;;;;5086005;28;20184;-73
2023/06/13 14:05:25;;;;;;;6.32;4.57;;;;;;;;;;5078522;28;20284;-71
2023/06/13 14:07:51;;;;;;;7.88;4.97;;;;;;;;;;5081546;28;20551;-71
2023/06/13 14:10:16;;;;;;;6.80;4.82;;;;;;;;;;5087103;28;20195;-70
2023/06/13 14:12:42;;;;;;;7.25;4.57;;;;;;;;;;5082555;28;20252;-73
2023/06/13 14:15:07;;;;;;;8.23;4.97;;;;;;;;;;5080802;28;20511;-70
2023/06/13 14:17:32;;;;;;;7.47;4.90;;;;;;;;;;5089132;28;20195;-69
2023/06/13 14:19:58;;;;;;;5.20;4.70;;;;;;;;;;5077580;28;20503;-71
2023/06/13 14:22:23;;;;;;;6.30;4.45;;;;;;;;;;5087280;28;20377;-69
2023/06/13 14:24:48;;;;;;;5.82;4.70;;;;;;;;;;5076822;28;20253;-69
2023/06/13 14:27:14;;;;;;;8.65;4.88;;;;;;;;;;5083361;28;20263;-69
2023/06/13 14:29:39;;;;;;;6.35;4.68;;;;;;;;;;5081819;28;20464;-70
2023/06/13 14:32:05;;;;;;;6.40;4.72;;;;;;;;;;5073436;28;20199;-69
2023/06/13 14:34:31;;;;;;;7.13;4.70;;;;;;;;;;5088038;28;20211;-70
2023/06/13 14:36:57;;;;;;;7.85;5.10;;;;;;;;;;5070957;28;21077;-70
2023/06/13 14:39:22;;;;;;;7.15;4.80;;;;;;;;;;5073028;28;20232;-70